Pearl Of Scandinavia — OWFU2 — position and weather

sailwx.info

Track history (hours):
 
Tides and Currents Weather Stations Pressure Air Temp Water Temp Dewpoint Dewpoint Depression Visibility Wind Speed Wind Dir Waves Ship Positions

Pearl Of Scandinavia

Last reported at 2020-Jul-02 11:26 UTC. Time now 2020-Jul-02 15:01 UTC.
Position N 55°42' E 012°36'.

Length 176.4 m; beam 34 m; draft 6.215 m.

Type: Ship. MMSI: 219945000.

Date/timePositionNaut miles runAvg speedWind from/ knotsBaromVisibWave heightAir tempDewpointWater temp
2020-Jul-02 11:26N 55°42' E 012°36'0 0.0
2020-Jul-02 10:55N 55°42' E 012°36'0 0.0
2020-Jul-02 10:28N 55°42' E 012°36'0 0.0
2020-Jul-02 09:28N 55°42' E 012°36'0 0.0
2020-Jul-02 08:58N 55°42' E 012°36'2 0.8
2020-Jul-02 06:30N 55°43' E 012°39'9914.2
2020-Jul-01 23:30N 57°18' E 011°44'36 7.3
2020-Jul-01 18:30N 57°35' E 010°44'4116.1
2020-Jul-01 15:59N 58°15' E 010°43'4216.8
2020-Jul-01 13:30N 58°57' E 010°39'39 4.9
2020-Jul-01 05:30N 59°37' E 010°38'2617.5
2020-Jul-01 04:00N 59°10' E 010°39'2818.5
2020-Jul-01 02:29N 58°42' E 010°44'4518.2
2020-Jul-01 00:00N 57°57' E 010°49'41 7.5
2020-Jun-30 18:31N 57°22' E 011°30'1019.3
2020-Jun-30 18:00N 57°13' E 011°36'1119.3
2020-Jun-30 17:26N 57°03' E 011°43'6717.0
2020-Jun-30 13:31N 56°04' E 012°39'2114.2
2020-Jun-30 12:00N 55°42' E 012°36'0 0.0
2020-Jun-30 07:30N 55°42' E 012°36'2 2.0
2020-Jun-30 06:30N 55°43' E 012°39'10113.5
2020-Jun-29 23:00N 57°17' E 011°31'713.9
2020-Jun-29 22:30N 57°24' E 011°26'1212.2
2020-Jun-29 21:31N 57°29' E 011°05'43 8.5
2020-Jun-29 16:30N 58°10' E 010°45'917.5
2020-Jun-29 16:00N 58°19' E 010°43'3316.7
2020-Jun-29 14:00N 58°52' E 010°40'816.9
2020-Jun-29 13:30N 59°01' E 010°39'54 8.3
2020-Jun-29 07:01N 59°54' E 010°45'1711.1
2020-Jun-29 05:30N 59°38' E 010°38'1616.5
2020-Jun-29 04:30N 59°21' E 010°35'7618.9
2020-Jun-29 00:30N 58°06' E 010°48'1818.5
2020-Jun-28 23:30N 57°48' E 010°48'1817.9
2020-Jun-28 22:30N 57°30' E 010°46'714.3
2020-Jun-28 22:00N 57°24' E 010°37'3 3.3
2020-Jun-28 21:04N 57°26' E 010°33'3011.5
2020-Jun-28 18:30N 57°25' E 011°28'8817.7
2020-Jun-28 13:30N 56°05' E 012°37'2315.0
2020-Jun-28 12:01N 55°42' E 012°36'0 0.1
2020-Jun-28 07:29N 55°42' E 012°36'22 8.7
2020-Jun-28 05:01N 56°04' E 012°38'8413.9
2020-Jun-27 23:00N 57°18' E 011°29'714.8
2020-Jun-27 22:30N 57°25' E 011°25'27 9.0
2020-Jun-27 19:30N 57°25' E 010°34'510.7
2020-Jun-27 19:00N 57°29' E 010°42'3815.2
2020-Jun-27 16:30N 58°07' E 010°44'4216.6
2020-Jun-27 14:00N 58°49' E 010°40'917.6
2020-Jun-27 13:30N 58°57' E 010°39'5712.9
2020-Jun-27 09:05N 59°54' E 010°45'0 0.0
2020-Jun-27 07:56N 59°54' E 010°45'0 0.0
2020-Jun-27 07:26N 59°54' E 010°45'11 7.4
2020-Jun-27 05:59N 59°45' E 010°35'5816.7
2020-Jun-27 02:30N 58°47' E 010°42'918.6
2020-Jun-27 02:00N 58°37' E 010°43'1918.8
2020-Jun-27 01:00N 58°19' E 010°45'3818.8
2020-Jun-26 23:00N 57°41' E 010°47'17 8.4
2020-Jun-26 21:00N 57°26' E 010°33'5 8.2
2020-Jun-26 20:27N 57°25' E 010°41'2114.2
2020-Jun-26 19:00N 57°30' E 011°18'2818.5
2020-Jun-26 17:30N 57°06' E 011°42'6618.8
2020-Jun-26 14:00N 56°06' E 012°34'1717.3
2020-Jun-26 13:00N 55°50' E 012°44'815.4
2020-Jun-26 12:31N 55°43' E 012°38'2 3.5
2020-Jun-26 12:01N 55°42' E 012°36'0 0.0
2020-Jun-26 11:28N 55°42' E 012°36'0 0.0
2020-Jun-26 10:58N 55°42' E 012°36'0 0.0
2020-Jun-26 07:49N 55°42' E 012°36'0 0.0
2020-Jun-26 07:28N 55°42' E 012°36'0 0.0
2020-Jun-26 06:58N 55°42' E 012°36'0 0.0
2020-Jun-26 05:55N 55°42' E 012°36'0 0.0
2020-Jun-26 05:28N 55°42' E 012°36'0 0.0
2020-Jun-26 02:22N 55°42' E 012°36'0 0.0
2020-Jun-26 00:28N 55°42' E 012°36'0 0.0
2020-Jun-25 19:58N 55°42' E 012°36'0 0.0
2020-Jun-25 18:46N 55°42' E 012°36'0 0.0
2020-Jun-25 17:58N 55°42' E 012°36'0 0.0
2020-Jun-25 16:28N 55°42' E 012°36'0 0.0
2020-Jun-25 14:28N 55°42' E 012°36'0 0.0
2020-Jun-25 12:58N 55°42' E 012°36'0 0.0
2020-Jun-25 12:28N 55°42' E 012°36'0 0.0
2020-Jun-25 11:49N 55°42' E 012°36'0 0.0
2020-Jun-25 11:25N 55°42' E 012°36'0 0.0
2020-Jun-25 09:25N 55°42' E 012°36'0 0.0
2020-Jun-25 08:19N 55°42' E 012°36'0 0.0
2020-Jun-25 04:58N 55°42' E 012°36'0 0.0
2020-Jun-25 03:58N 55°42' E 012°36'0 0.0
2020-Jun-25 02:58N 55°42' E 012°36'0 0.0
2020-Jun-25 01:58N 55°42' E 012°36'0 0.0
2020-Jun-25 01:28N 55°42' E 012°36'0 0.0
2020-Jun-24 23:58N 55°42' E 012°36'0 0.0
2020-Jun-24 20:58N 55°42' E 012°36'0 0.0
2020-Jun-24 18:28N 55°42' E 012°36'0 0.0
2020-Jun-24 15:19N 55°42' E 012°36'0 0.0
2020-Jun-24 13:58N 55°42' E 012°36'0 0.0
2020-Jun-24 11:58N 55°42' E 012°36'0 0.0
2020-Jun-24 11:25N 55°42' E 012°36'0 0.0
2020-Jun-24 09:52N 55°42' E 012°36'0 0.0
2020-Jun-24 06:58N 55°42' E 012°36'0 0.0
2020-Jun-24 05:55N 55°42' E 012°36'0 0.0
2020-Jun-24 03:55N 55°42' E 012°36'0 0.0
2020-Jun-24 02:46N 55°42' E 012°36'0 0.0
2020-Jun-24 02:25N 55°42' E 012°36'0 0.0
2020-Jun-24 00:52N 55°42' E 012°36'0 0.0
2020-Jun-23 21:46N 55°42' E 012°36'0 0.0
2020-Jun-23 21:28N 55°42' E 012°36'0 0.0
2020-Jun-23 18:28N 55°42' E 012°36'0 0.0
2020-Jun-23 17:25N 55°42' E 012°36'0 0.0
2020-Jun-23 13:25N 55°42' E 012°36'0 0.0
2020-Jun-23 10:58N 55°42' E 012°36'0 0.0
2020-Jun-23 10:28N 55°42' E 012°36'0 0.0
2020-Jun-23 09:55N 55°42' E 012°36'0 0.0
2020-Jun-23 09:22N 55°42' E 012°36'0 0.0
2020-Jun-23 08:28N 55°42' E 012°36'0 0.0
2020-Jun-23 05:13N 55°42' E 012°36'0 0.0
2020-Jun-23 04:58N 55°42' E 012°36'0 0.0
2020-Jun-23 03:58N 55°42' E 012°36'0 0.0
2020-Jun-23 02:58N 55°42' E 012°36'0 0.0
2020-Jun-23 01:28N 55°42' E 012°36'0 0.0
2020-Jun-22 23:28N 55°42' E 012°36'0 0.0
2020-Jun-22 21:28N 55°42' E 012°36'0 0.0
2020-Jun-22 20:58N 55°42' E 012°36'0 0.0
2020-Jun-22 20:25N 55°42' E 012°36'0 0.0
2020-Jun-22 19:52N 55°42' E 012°36'0 0.0
2020-Jun-22 16:28N 55°42' E 012°36'0 0.0
2020-Jun-22 14:25N 55°42' E 012°36'0 0.0
2020-Jun-22 13:55N 55°42' E 012°36'0 0.0
2020-Jun-22 12:58N 55°42' E 012°36'0 0.0
2020-Jun-22 11:49N 55°42' E 012°36'  
Track history (hours):
 
Tides and Currents Weather Stations Pressure Air Temp Water Temp Dewpoint Dewpoint Depression Visibility Wind Speed Wind Dir Waves Ship Positions

Pearl Of Scandinavia

Last reported at 2020-Jul-02 11:26 UTC. Time now 2020-Jul-02 15:01 UTC.
Position N 55°42' E 012°36'.

Length 176.4 m; beam 34 m; draft 6.215 m.

Type: Ship. MMSI: 219945000.

Date/timePositionNaut miles runAvg speedWind from/ knotsBaromVisibWave heightAir tempDewpointWater temp
2020-Jul-02 11:26N 55°42' E 012°36'0 0.0
2020-Jul-02 10:55N 55°42' E 012°36'0 0.0
2020-Jul-02 10:28N 55°42' E 012°36'0 0.0
2020-Jul-02 09:28N 55°42' E 012°36'0 0.0
2020-Jul-02 08:58N 55°42' E 012°36'2 0.8
2020-Jul-02 06:30N 55°43' E 012°39'9914.2
2020-Jul-01 23:30N 57°18' E 011°44'36 7.3
2020-Jul-01 18:30N 57°35' E 010°44'4116.1
2020-Jul-01 15:59N 58°15' E 010°43'4216.8
2020-Jul-01 13:30N 58°57' E 010°39'39 4.9
2020-Jul-01 05:30N 59°37' E 010°38'2617.5
2020-Jul-01 04:00N 59°10' E 010°39'2818.5
2020-Jul-01 02:29N 58°42' E 010°44'4518.2
2020-Jul-01 00:00N 57°57' E 010°49'41 7.5
2020-Jun-30 18:31N 57°22' E 011°30'1019.3
2020-Jun-30 18:00N 57°13' E 011°36'1119.3
2020-Jun-30 17:26N 57°03' E 011°43'6717.0
2020-Jun-30 13:31N 56°04' E 012°39'2114.2
2020-Jun-30 12:00N 55°42' E 012°36'0 0.0
2020-Jun-30 07:30N 55°42' E 012°36'2 2.0
2020-Jun-30 06:30N 55°43' E 012°39'10113.5
2020-Jun-29 23:00N 57°17' E 011°31'713.9
2020-Jun-29 22:30N 57°24' E 011°26'1212.2
2020-Jun-29 21:31N 57°29' E 011°05'43 8.5
2020-Jun-29 16:30N 58°10' E 010°45'917.5
2020-Jun-29 16:00N 58°19' E 010°43'3316.7
2020-Jun-29 14:00N 58°52' E 010°40'816.9
2020-Jun-29 13:30N 59°01' E 010°39'54 8.3
2020-Jun-29 07:01N 59°54' E 010°45'1711.1
2020-Jun-29 05:30N 59°38' E 010°38'1616.5
2020-Jun-29 04:30N 59°21' E 010°35'7618.9
2020-Jun-29 00:30N 58°06' E 010°48'1818.5
2020-Jun-28 23:30N 57°48' E 010°48'1817.9
2020-Jun-28 22:30N 57°30' E 010°46'714.3
2020-Jun-28 22:00N 57°24' E 010°37'3 3.3
2020-Jun-28 21:04N 57°26' E 010°33'3011.5
2020-Jun-28 18:30N 57°25' E 011°28'8817.7
2020-Jun-28 13:30N 56°05' E 012°37'2315.0
2020-Jun-28 12:01N 55°42' E 012°36'0 0.1
2020-Jun-28 07:29N 55°42' E 012°36'22 8.7
2020-Jun-28 05:01N 56°04' E 012°38'8413.9
2020-Jun-27 23:00N 57°18' E 011°29'714.8
2020-Jun-27 22:30N 57°25' E 011°25'27 9.0
2020-Jun-27 19:30N 57°25' E 010°34'510.7
2020-Jun-27 19:00N 57°29' E 010°42'3815.2
2020-Jun-27 16:30N 58°07' E 010°44'4216.6
2020-Jun-27 14:00N 58°49' E 010°40'917.6
2020-Jun-27 13:30N 58°57' E 010°39'5712.9
2020-Jun-27 09:05N 59°54' E 010°45'0 0.0
2020-Jun-27 07:56N 59°54' E 010°45'0 0.0
2020-Jun-27 07:26N 59°54' E 010°45'11 7.4
2020-Jun-27 05:59N 59°45' E 010°35'5816.7
2020-Jun-27 02:30N 58°47' E 010°42'918.6
2020-Jun-27 02:00N 58°37' E 010°43'1918.8
2020-Jun-27 01:00N 58°19' E 010°45'3818.8
2020-Jun-26 23:00N 57°41' E 010°47'17 8.4
2020-Jun-26 21:00N 57°26' E 010°33'5 8.2
2020-Jun-26 20:27N 57°25' E 010°41'2114.2
2020-Jun-26 19:00N 57°30' E 011°18'2818.5
2020-Jun-26 17:30N 57°06' E 011°42'6618.8
2020-Jun-26 14:00N 56°06' E 012°34'1717.3
2020-Jun-26 13:00N 55°50' E 012°44'815.4
2020-Jun-26 12:31N 55°43' E 012°38'2 3.5
2020-Jun-26 12:01N 55°42' E 012°36'0 0.0
2020-Jun-26 11:28N 55°42' E 012°36'0 0.0
2020-Jun-26 10:58N 55°42' E 012°36'0 0.0
2020-Jun-26 07:49N 55°42' E 012°36'0 0.0
2020-Jun-26 07:28N 55°42' E 012°36'0 0.0
2020-Jun-26 06:58N 55°42' E 012°36'0 0.0
2020-Jun-26 05:55N 55°42' E 012°36'0 0.0
2020-Jun-26 05:28N 55°42' E 012°36'0 0.0
2020-Jun-26 02:22N 55°42' E 012°36'0 0.0
2020-Jun-26 00:28N 55°42' E 012°36'0 0.0
2020-Jun-25 19:58N 55°42' E 012°36'0 0.0
2020-Jun-25 18:46N 55°42' E 012°36'0 0.0
2020-Jun-25 17:58N 55°42' E 012°36'0 0.0
2020-Jun-25 16:28N 55°42' E 012°36'0 0.0
2020-Jun-25 14:28N 55°42' E 012°36'0 0.0
2020-Jun-25 12:58N 55°42' E 012°36'0 0.0
2020-Jun-25 12:28N 55°42' E 012°36'0 0.0
2020-Jun-25 11:49N 55°42' E 012°36'0 0.0
2020-Jun-25 11:25N 55°42' E 012°36'0 0.0
2020-Jun-25 09:25N 55°42' E 012°36'0 0.0
2020-Jun-25 08:19N 55°42' E 012°36'0 0.0
2020-Jun-25 04:58N 55°42' E 012°36'0 0.0
2020-Jun-25 03:58N 55°42' E 012°36'0 0.0
2020-Jun-25 02:58N 55°42' E 012°36'0 0.0
2020-Jun-25 01:58N 55°42' E 012°36'0 0.0
2020-Jun-25 01:28N 55°42' E 012°36'0 0.0
2020-Jun-24 23:58N 55°42' E 012°36'0 0.0
2020-Jun-24 20:58N 55°42' E 012°36'0 0.0
2020-Jun-24 18:28N 55°42' E 012°36'0 0.0
2020-Jun-24 15:19N 55°42' E 012°36'0 0.0
2020-Jun-24 13:58N 55°42' E 012°36'0 0.0
2020-Jun-24 11:58N 55°42' E 012°36'0 0.0
2020-Jun-24 11:25N 55°42' E 012°36'0 0.0
2020-Jun-24 09:52N 55°42' E 012°36'0 0.0
2020-Jun-24 06:58N 55°42' E 012°36'0 0.0
2020-Jun-24 05:55N 55°42' E 012°36'0 0.0
2020-Jun-24 03:55N 55°42' E 012°36'0 0.0
2020-Jun-24 02:46N 55°42' E 012°36'0 0.0
2020-Jun-24 02:25N 55°42' E 012°36'0 0.0
2020-Jun-24 00:52N 55°42' E 012°36'0 0.0
2020-Jun-23 21:46N 55°42' E 012°36'0 0.0
2020-Jun-23 21:28N 55°42' E 012°36'0 0.0
2020-Jun-23 18:28N 55°42' E 012°36'0 0.0
2020-Jun-23 17:25N 55°42' E 012°36'0 0.0
2020-Jun-23 13:25N 55°42' E 012°36'0 0.0
2020-Jun-23 10:58N 55°42' E 012°36'0 0.0
2020-Jun-23 10:28N 55°42' E 012°36'0 0.0
2020-Jun-23 09:55N 55°42' E 012°36'0 0.0
2020-Jun-23 09:22N 55°42' E 012°36'0 0.0
2020-Jun-23 08:28N 55°42' E 012°36'0 0.0
2020-Jun-23 05:13N 55°42' E 012°36'0 0.0
2020-Jun-23 04:58N 55°42' E 012°36'0 0.0
2020-Jun-23 03:58N 55°42' E 012°36'0 0.0
2020-Jun-23 02:58N 55°42' E 012°36'0 0.0
2020-Jun-23 01:28N 55°42' E 012°36'0 0.0
2020-Jun-22 23:28N 55°42' E 012°36'0 0.0
2020-Jun-22 21:28N 55°42' E 012°36'0 0.0
2020-Jun-22 20:58N 55°42' E 012°36'0 0.0
2020-Jun-22 20:25N 55°42' E 012°36'0 0.0
2020-Jun-22 19:52N 55°42' E 012°36'0 0.0
2020-Jun-22 16:28N 55°42' E 012°36'0 0.0
2020-Jun-22 14:25N 55°42' E 012°36'0 0.0
2020-Jun-22 13:55N 55°42' E 012°36'0 0.0
2020-Jun-22 12:58N 55°42' E 012°36'0 0.0
2020-Jun-22 11:49N 55°42' E 012°36'  

Dump ship's entire track history